sensor_id;sensor_type;location;lat;lon;timestamp;temperature;humidity
3788;DHT22;1909;53.046;8.276;2022-11-18T00:02:02;5.20;99.90
3788;DHT22;1909;53.046;8.276;2022-11-18T00:04:30;5.20;99.90
3788;DHT22;1909;53.046;8.276;2022-11-18T00:06:57;5.20;99.90
3788;DHT22;1909;53.046;8.276;2022-11-18T00:09:24;5.20;99.90
3788;DHT22;1909;53.046;8.276;2022-11-18T00:11:51;5.20;99.90
3788;DHT22;1909;53.046;8.276;2022-11-18T00:14:35;5.20;99.90
3788;DHT22;1909;53.046;8.276;2022-11-18T00:17:03;5.20;99.90
3788;DHT22;1909;53.046;8.276;2022-11-18T00:19:33;5.20;99.90
3788;DHT22;1909;53.046;8.276;2022-11-18T00:22:00;5.20;99.90
3788;DHT22;1909;53.046;8.276;2022-11-18T00:24:27;5.20;99.90
3788;DHT22;1909;53.046;8.276;2022-11-18T00:26:54;5.20;99.90
3788;DHT22;1909;53.046;8.276;2022-11-18T00:29:22;5.20;99.90
3788;DHT22;1909;53.046;8.276;2022-11-18T00:31:50;5.10;99.90
3788;DHT22;1909;53.046;8.276;2022-11-18T00:34:17;5.20;99.90
3788;DHT22;1909;53.046;8.276;2022-11-18T00:36:46;5.10;99.90
3788;DHT22;1909;53.046;8.276;2022-11-18T00:39:14;5.10;99.90
3788;DHT22;1909;53.046;8.276;2022-11-18T00:41:41;5.20;99.90
3788;DHT22;1909;53.046;8.276;2022-11-18T00:44:26;5.10;99.90
3788;DHT22;1909;53.046;8.276;2022-11-18T00:46:53;5.10;99.90
3788;DHT22;1909;53.046;8.276;2022-11-18T00:49:20;5.10;99.90
3788;DHT22;1909;53.046;8.276;2022-11-18T00:51:48;5.10;99.90
3788;DHT22;1909;53.046;8.276;2022-11-18T00:54:14;5.10;99.90
3788;DHT22;1909;53.046;8.276;2022-11-18T00:56:41;5.10;99.90
3788;DHT22;1909;53.046;8.276;2022-11-18T00:59:08;5.10;99.90
3788;DHT22;1909;53.046;8.276;2022-11-18T01:01:35;5.10;99.90
3788;DHT22;1909;53.046;8.276;2022-11-18T01:04:01;5.10;99.90
3788;DHT22;1909;53.046;8.276;2022-11-18T01:06:28;5.10;99.90
3788;DHT22;1909;53.046;8.276;2022-11-18T01:08:56;5.10;99.90
3788;DHT22;1909;53.046;8.276;2022-11-18T01:11:23;5.10;99.90
3788;DHT22;1909;53.046;8.276;2022-11-18T01:14:07;5.10;99.90
3788;DHT22;1909;53.046;8.276;2022-11-18T01:16:34;5.00;99.90
3788;DHT22;1909;53.046;8.276;2022-11-18T01:19:01;5.00;99.90
3788;DHT22;1909;53.046;8.276;2022-11-18T01:21:28;5.00;99.90
3788;DHT22;1909;53.046;8.276;2022-11-18T01:23:54;5.00;99.90
3788;DHT22;1909;53.046;8.276;2022-11-18T01:26:22;5.10;99.90
3788;DHT22;1909;53.046;8.276;2022-11-18T01:28:49;5.00;99.90
3788;DHT22;1909;53.046;8.276;2022-11-18T01:31:18;5.10;99.90
3788;DHT22;1909;53.046;8.276;2022-11-18T01:33:45;5.00;99.90
3788;DHT22;1909;53.046;8.276;2022-11-18T01:36:17;5.00;99.90
3788;DHT22;1909;53.046;8.276;2022-11-18T01:38:44;5.00;99.90
3788;DHT22;1909;53.046;8.276;2022-11-18T01:41:11;5.00;99.90
3788;DHT22;1909;53.046;8.276;2022-11-18T01:43:51;5.00;99.90
3788;DHT22;1909;53.046;8.276;2022-11-18T01:46:19;5.00;99.90
3788;DHT22;1909;53.046;8.276;2022-11-18T01:48:50;5.00;99.90
3788;DHT22;1909;53.046;8.276;2022-11-18T01:51:21;5.00;99.90
3788;DHT22;1909;53.046;8.276;2022-11-18T01:53:54;5.00;99.90
3788;DHT22;1909;53.046;8.276;2022-11-18T01:56:28;5.00;99.90
3788;DHT22;1909;53.046;8.276;2022-11-18T01:58:58;5.10;99.90
3788;DHT22;1909;53.046;8.276;2022-11-18T02:01:27;5.00;99.90
3788;DHT22;1909;53.046;8.276;2022-11-18T02:03:54;5.00;99.90
3788;DHT22;1909;53.046;8.276;2022-11-18T02:06:21;5.00;99.90
3788;DHT22;1909;53.046;8.276;2022-11-18T02:08:48;5.00;99.90
3788;DHT22;1909;53.046;8.276;2022-11-18T02:11:16;4.90;99.90
3788;DHT22;1909;53.046;8.276;2022-11-18T02:13:59;5.00;99.90
3788;DHT22;1909;53.046;8.276;2022-11-18T02:16:31;4.90;99.90
3788;DHT22;1909;53.046;8.276;2022-11-18T02:19:02;4.90;99.90
3788;DHT22;1909;53.046;8.276;2022-11-18T02:21:39;4.90;99.90
3788;DHT22;1909;53.046;8.276;2022-11-18T02:24:35;4.90;99.90
3788;DHT22;1909;53.046;8.276;2022-11-18T02:30:03;4.90;99.90
3788;DHT22;1909;53.046;8.276;2022-11-18T02:32:35;4.90;99.90
3788;DHT22;1909;53.046;8.276;2022-11-18T02:35:09;4.90;99.90
3788;DHT22;1909;53.046;8.276;2022-11-18T02:37:43;4.90;99.90
3788;DHT22;1909;53.046;8.276;2022-11-18T02:40:15;4.90;99.90
3788;DHT22;1909;53.046;8.276;2022-11-18T02:42:48;4.90;99.90
3788;DHT22;1909;53.046;8.276;2022-11-18T02:45:18;4.90;99.90
3788;DHT22;1909;53.046;8.276;2022-11-18T02:47:48;4.90;99.90
3788;DHT22;1909;53.046;8.276;2022-11-18T02:50:18;4.90;99.90
3788;DHT22;1909;53.046;8.276;2022-11-18T02:52:46;4.90;99.90
3788;DHT22;1909;53.046;8.276;2022-11-18T02:55:16;4.90;99.90
3788;DHT22;1909;53.046;8.276;2022-11-18T02:57:44;4.90;99.90
3788;DHT22;1909;53.046;8.276;2022-11-18T03:00:13;4.90;99.90
3788;DHT22;1909;53.046;8.276;2022-11-18T03:02:42;4.80;99.90
3788;DHT22;1909;53.046;8.276;2022-11-18T03:05:15;4.80;99.90
3788;DHT22;1909;53.046;8.276;2022-11-18T03:07:46;4.90;99.90
3788;DHT22;1909;53.046;8.276;2022-11-18T03:10:14;4.90;99.90
3788;DHT22;1909;53.046;8.276;2022-11-18T03:12:44;4.80;99.90
3788;DHT22;1909;53.046;8.276;2022-11-18T03:15:19;4.80;99.90
3788;DHT22;1909;53.046;8.276;2022-11-18T03:17:56;4.80;99.90
3788;DHT22;1909;53.046;8.276;2022-11-18T03:20:25;4.80;99.90
3788;DHT22;1909;53.046;8.276;2022-11-18T03:22:57;4.80;99.90
3788;DHT22;1909;53.046;8.276;2022-11-18T03:25:30;4.70;99.90
3788;DHT22;1909;53.046;8.276;2022-11-18T03:28:05;4.70;99.90
3788;DHT22;1909;53.046;8.276;2022-11-18T03:30:37;4.70;99.90
3788;DHT22;1909;53.046;8.276;2022-11-18T03:33:12;4.80;99.90
3788;DHT22;1909;53.046;8.276;2022-11-18T03:35:43;4.70;99.90
3788;DHT22;1909;53.046;8.276;2022-11-18T03:38:14;4.80;99.90
3788;DHT22;1909;53.046;8.276;2022-11-18T03:40:47;4.80;99.90
3788;DHT22;1909;53.046;8.276;2022-11-18T03:43:16;4.70;99.90
3788;DHT22;1909;53.046;8.276;2022-11-18T03:45:46;4.70;99.90
3788;DHT22;1909;53.046;8.276;2022-11-18T03:48:17;4.70;99.90
3788;DHT22;1909;53.046;8.276;2022-11-18T03:50:46;4.60;99.90
3788;DHT22;1909;53.046;8.276;2022-11-18T03:53:15;4.70;99.90
3788;DHT22;1909;53.046;8.276;2022-11-18T03:55:46;4.80;99.90
3788;DHT22;1909;53.046;8.276;2022-11-18T03:58:17;4.70;99.90
3788;DHT22;1909;53.046;8.276;2022-11-18T04:00:50;4.70;99.90
3788;DHT22;1909;53.046;8.276;2022-11-18T04:03:19;4.60;99.90
3788;DHT22;1909;53.046;8.276;2022-11-18T04:05:46;4.70;99.90
3788;DHT22;1909;53.046;8.276;2022-11-18T04:08:20;4.60;99.90
3788;DHT22;1909;53.046;8.276;2022-11-18T04:10:51;4.60;99.90
3788;DHT22;1909;53.046;8.276;2022-11-18T04:13:24;4.70;99.90
3788;DHT22;1909;53.046;8.276;2022-11-18T04:15:52;4.70;99.90
3788;DHT22;1909;53.046;8.276;2022-11-18T04:18:21;4.70;99.90
3788;DHT22;1909;53.046;8.276;2022-11-18T04:20:48;4.60;99.90
3788;DHT22;1909;53.046;8.276;2022-11-18T04:23:14;4.60;99.90
3788;DHT22;1909;53.046;8.276;2022-11-18T04:25:41;4.60;99.90
3788;DHT22;1909;53.046;8.276;2022-11-18T04:28:08;4.60;99.90
3788;DHT22;1909;53.046;8.276;2022-11-18T04:30:35;4.60;99.90
3788;DHT22;1909;53.046;8.276;2022-11-18T04:33:01;4.60;99.90
3788;DHT22;1909;53.046;8.276;2022-11-18T04:35:30;4.60;99.90
3788;DHT22;1909;53.046;8.276;2022-11-18T04:37:57;4.60;99.90
3788;DHT22;1909;53.046;8.276;2022-11-18T04:40:24;4.60;99.90
3788;DHT22;1909;53.046;8.276;2022-11-18T04:42:51;4.60;99.90
3788;DHT22;1909;53.046;8.276;2022-11-18T04:45:18;4.60;99.90
3788;DHT22;1909;53.046;8.276;2022-11-18T04:47:44;4.60;99.90
3788;DHT22;1909;53.046;8.276;2022-11-18T04:50:11;4.50;99.90
3788;DHT22;1909;53.046;8.276;2022-11-18T04:52:39;4.50;99.90
3788;DHT22;1909;53.046;8.276;2022-11-18T04:55:07;4.50;99.90
3788;DHT22;1909;53.046;8.276;2022-11-18T04:57:33;4.50;99.90
3788;DHT22;1909;53.046;8.276;2022-11-18T05:00:00;4.50;99.90
3788;DHT22;1909;53.046;8.276;2022-11-18T05:02:27;4.50;99.90
3788;DHT22;1909;53.046;8.276;2022-11-18T05:04:53;4.50;99.90
3788;DHT22;1909;53.046;8.276;2022-11-18T05:07:20;4.50;99.90
3788;DHT22;1909;53.046;8.276;2022-11-18T05:09:48;4.40;99.90
3788;DHT22;1909;53.046;8.276;2022-11-18T05:12:15;4.50;99.90
3788;DHT22;1909;53.046;8.276;2022-11-18T05:15:00;4.40;99.90
3788;DHT22;1909;53.046;8.276;2022-11-18T05:17:26;4.40;99.90
3788;DHT22;1909;53.046;8.276;2022-11-18T05:19:53;4.40;99.90
3788;DHT22;1909;53.046;8.276;2022-11-18T05:22:20;4.30;99.90
3788;DHT22;1909;53.046;8.276;2022-11-18T05:24:48;4.40;99.90
3788;DHT22;1909;53.046;8.276;2022-11-18T05:27:15;4.30;99.90
3788;DHT22;1909;53.046;8.276;2022-11-18T05:29:42;4.30;99.90
3788;DHT22;1909;53.046;8.276;2022-11-18T05:32:09;4.30;99.90
3788;DHT22;1909;53.046;8.276;2022-11-18T05:34:36;4.30;99.90
3788;DHT22;1909;53.046;8.276;2022-11-18T05:37:03;4.30;99.90
3788;DHT22;1909;53.046;8.276;2022-11-18T05:39:30;4.30;99.90
3788;DHT22;1909;53.046;8.276;2022-11-18T05:41:59;4.30;99.90
3788;DHT22;1909;53.046;8.276;2022-11-18T05:44:44;4.30;99.90
3788;DHT22;1909;53.046;8.276;2022-11-18T05:47:11;4.40;99.90
3788;DHT22;1909;53.046;8.276;2022-11-18T05:49:37;4.30;99.90
3788;DHT22;1909;53.046;8.276;2022-11-18T05:52:05;4.40;99.90
3788;DHT22;1909;53.046;8.276;2022-11-18T05:54:31;4.40;99.90
3788;DHT22;1909;53.046;8.276;2022-11-18T05:57:00;4.30;99.90
3788;DHT22;1909;53.046;8.276;2022-11-18T05:59:26;4.20;99.90
3788;DHT22;1909;53.046;8.276;2022-11-18T06:01:56;4.30;99.90
3788;DHT22;1909;53.046;8.276;2022-11-18T06:04:27;4.20;99.90
3788;DHT22;1909;53.046;8.276;2022-11-18T06:06:59;4.10;99.90
3788;DHT22;1909;53.046;8.276;2022-11-18T06:09:31;4.10;99.90
3788;DHT22;1909;53.046;8.276;2022-11-18T06:12:01;4.20;99.90
3788;DHT22;1909;53.046;8.276;2022-11-18T06:14:32;4.10;99.90
3788;DHT22;1909;53.046;8.276;2022-11-18T06:17:02;4.20;99.90
3788;DHT22;1909;53.046;8.276;2022-11-18T06:19:31;4.20;99.90
3788;DHT22;1909;53.046;8.276;2022-11-18T06:21:58;4.20;99.90
3788;DHT22;1909;53.046;8.276;2022-11-18T06:24:25;4.10;99.90
3788;DHT22;1909;53.046;8.276;2022-11-18T06:26:52;4.30;99.90
3788;DHT22;1909;53.046;8.276;2022-11-18T06:29:20;4.30;99.90
3788;DHT22;1909;53.046;8.276;2022-11-18T06:31:47;4.40;99.90
3788;DHT22;1909;53.046;8.276;2022-11-18T06:34:14;4.20;99.90
3788;DHT22;1909;53.046;8.276;2022-11-18T06:36:41;4.20;99.90
3788;DHT22;1909;53.046;8.276;2022-11-18T06:39:07;4.30;99.90
3788;DHT22;1909;53.046;8.276;2022-11-18T06:41:34;4.30;99.90
3788;DHT22;1909;53.046;8.276;2022-11-18T06:44:01;4.20;99.90
3788;DHT22;1909;53.046;8.276;2022-11-18T06:46:29;4.20;99.90
3788;DHT22;1909;53.046;8.276;2022-11-18T06:49:25;4.10;99.90
3788;DHT22;1909;53.046;8.276;2022-11-18T06:51:52;4.00;99.90
3788;DHT22;1909;53.046;8.276;2022-11-18T06:54:19;4.00;99.90
3788;DHT22;1909;53.046;8.276;2022-11-18T06:56:46;4.00;99.90
3788;DHT22;1909;53.046;8.276;2022-11-18T06:59:13;3.90;99.90
3788;DHT22;1909;53.046;8.276;2022-11-18T07:01:47;3.90;99.90
3788;DHT22;1909;53.046;8.276;2022-11-18T07:04:14;3.90;99.90
3788;DHT22;1909;53.046;8.276;2022-11-18T07:06:40;4.10;99.90
3788;DHT22;1909;53.046;8.276;2022-11-18T07:09:07;4.00;99.90
3788;DHT22;1909;53.046;8.276;2022-11-18T07:11:34;4.10;99.90
3788;DHT22;1909;53.046;8.276;2022-11-18T07:14:02;3.90;99.90
3788;DHT22;1909;53.046;8.276;2022-11-18T07:16:29;3.90;99.90
3788;DHT22;1909;53.046;8.276;2022-11-18T07:18:57;3.90;99.90
3788;DHT22;1909;53.046;8.276;2022-11-18T07:21:25;4.00;99.90
3788;DHT22;1909;53.046;8.276;2022-11-18T07:23:52;3.90;99.90
3788;DHT22;1909;53.046;8.276;2022-11-18T07:26:19;3.70;99.90
3788;DHT22;1909;53.046;8.276;2022-11-18T07:28:47;3.60;99.90
3788;DHT22;1909;53.046;8.276;2022-11-18T07:31:17;3.60;99.90
3788;DHT22;1909;53.046;8.276;2022-11-18T07:33:44;3.60;99.90
3788;DHT22;1909;53.046;8.276;2022-11-18T07:36:14;3.80;99.90
3788;DHT22;1909;53.046;8.276;2022-11-18T07:38:41;3.90;99.90
3788;DHT22;1909;53.046;8.276;2022-11-18T07:41:10;3.90;99.90
3788;DHT22;1909;53.046;8.276;2022-11-18T07:43:38;3.90;99.90
3788;DHT22;1909;53.046;8.276;2022-11-18T07:46:13;4.00;99.90
3788;DHT22;1909;53.046;8.276;2022-11-18T07:48:41;4.00;99.90
3788;DHT22;1909;53.046;8.276;2022-11-18T07:51:08;3.90;99.90
3788;DHT22;1909;53.046;8.276;2022-11-18T07:53:37;3.90;99.90
3788;DHT22;1909;53.046;8.276;2022-11-18T07:56:04;3.90;99.90
3788;DHT22;1909;53.046;8.276;2022-11-18T07:58:31;3.90;99.90
3788;DHT22;1909;53.046;8.276;2022-11-18T08:00:58;3.80;99.90
3788;DHT22;1909;53.046;8.276;2022-11-18T08:03:31;3.70;99.90
3788;DHT22;1909;53.046;8.276;2022-11-18T08:05:58;3.80;99.90
3788;DHT22;1909;53.046;8.276;2022-11-18T08:08:25;3.90;99.90
3788;DHT22;1909;53.046;8.276;2022-11-18T08:10:55;3.80;99.90
3788;DHT22;1909;53.046;8.276;2022-11-18T08:13:22;3.90;99.90
3788;DHT22;1909;53.046;8.276;2022-11-18T08:15:49;3.90;99.90
3788;DHT22;1909;53.046;8.276;2022-11-18T08:18:15;3.70;99.90
3788;DHT22;1909;53.046;8.276;2022-11-18T08:20:43;3.80;99.90
3788;DHT22;1909;53.046;8.276;2022-11-18T08:23:10;3.80;99.90
3788;DHT22;1909;53.046;8.276;2022-11-18T08:25:36;3.80;99.90
3788;DHT22;1909;53.046;8.276;2022-11-18T08:28:05;3.70;99.90
3788;DHT22;1909;53.046;8.276;2022-11-18T08:30:32;3.80;99.90
3788;DHT22;1909;53.046;8.276;2022-11-18T08:32:59;3.50;99.90
3788;DHT22;1909;53.046;8.276;2022-11-18T08:35:26;3.50;99.90
3788;DHT22;1909;53.046;8.276;2022-11-18T08:37:53;3.50;99.90
3788;DHT22;1909;53.046;8.276;2022-11-18T08:40:20;3.50;99.90
3788;DHT22;1909;53.046;8.276;2022-11-18T08:42:47;3.40;99.90
3788;DHT22;1909;53.046;8.276;2022-11-18T08:45:15;3.40;99.90
3788;DHT22;1909;53.046;8.276;2022-11-18T08:47:42;3.40;99.90
3788;DHT22;1909;53.046;8.276;2022-11-18T08:50:10;3.30;99.90
3788;DHT22;1909;53.046;8.276;2022-11-18T08:52:37;3.30;99.90
3788;DHT22;1909;53.046;8.276;2022-11-18T08:55:04;3.20;99.90
3788;DHT22;1909;53.046;8.276;2022-11-18T08:57:31;3.30;99.90
3788;DHT22;1909;53.046;8.276;2022-11-18T08:59:57;3.30;99.90
3788;DHT22;1909;53.046;8.276;2022-11-18T09:02:25;3.40;99.90
3788;DHT22;1909;53.046;8.276;2022-11-18T09:04:52;3.30;99.90
3788;DHT22;1909;53.046;8.276;2022-11-18T09:07:20;3.30;99.90
3788;DHT22;1909;53.046;8.276;2022-11-18T09:09:47;3.20;99.90
3788;DHT22;1909;53.046;8.276;2022-11-18T09:12:14;3.20;99.90
3788;DHT22;1909;53.046;8.276;2022-11-18T09:14:42;3.20;99.90
3788;DHT22;1909;53.046;8.276;2022-11-18T09:17:08;3.20;99.90
3788;DHT22;1909;53.046;8.276;2022-11-18T09:19:37;3.20;99.90
3788;DHT22;1909;53.046;8.276;2022-11-18T09:22:04;3.20;99.90
3788;DHT22;1909;53.046;8.276;2022-11-18T09:24:31;3.10;99.90
3788;DHT22;1909;53.046;8.276;2022-11-18T09:26:58;3.20;99.90
3788;DHT22;1909;53.046;8.276;2022-11-18T09:29:27;3.20;99.90
3788;DHT22;1909;53.046;8.276;2022-11-18T09:31:54;3.20;99.90
3788;DHT22;1909;53.046;8.276;2022-11-18T09:34:21;3.10;99.90
3788;DHT22;1909;53.046;8.276;2022-11-18T09:36:49;3.20;99.90
3788;DHT22;1909;53.046;8.276;2022-11-18T09:39:20;3.20;99.90
3788;DHT22;1909;53.046;8.276;2022-11-18T09:41:49;3.10;99.90
3788;DHT22;1909;53.046;8.276;2022-11-18T09:44:44;3.00;99.90
3788;DHT22;1909;53.046;8.276;2022-11-18T09:47:22;3.00;99.90
3788;DHT22;1909;53.046;8.276;2022-11-18T09:49:51;3.00;99.90
3788;DHT22;1909;53.046;8.276;2022-11-18T09:52:23;3.00;99.90
3788;DHT22;1909;53.046;8.276;2022-11-18T09:54:51;3.10;99.90
3788;DHT22;1909;53.046;8.276;2022-11-18T09:57:20;3.10;99.90
3788;DHT22;1909;53.046;8.276;2022-11-18T09:59:48;3.00;99.90
3788;DHT22;1909;53.046;8.276;2022-11-18T10:02:29;3.00;99.90
3788;DHT22;1909;53.046;8.276;2022-11-18T10:05:12;3.20;99.90
3788;DHT22;1909;53.046;8.276;2022-11-18T10:07:46;3.30;99.90
3788;DHT22;1909;53.046;8.276;2022-11-18T10:10:20;3.40;99.90
3788;DHT22;1909;53.046;8.276;2022-11-18T10:12:53;3.30;99.90
3788;DHT22;1909;53.046;8.276;2022-11-18T10:15:27;3.30;99.90
3788;DHT22;1909;53.046;8.276;2022-11-18T10:18:04;3.30;99.90
3788;DHT22;1909;53.046;8.276;2022-11-18T10:20:48;3.30;99.90
3788;DHT22;1909;53.046;8.276;2022-11-18T10:23:25;3.20;99.90
3788;DHT22;1909;53.046;8.276;2022-11-18T10:25:53;3.20;99.90
3788;DHT22;1909;53.046;8.276;2022-11-18T10:28:22;3.30;99.90
3788;DHT22;1909;53.046;8.276;2022-11-18T10:30:50;3.20;99.90
3788;DHT22;1909;53.046;8.276;2022-11-18T10:33:23;3.30;99.90
3788;DHT22;1909;53.046;8.276;2022-11-18T10:36:13;3.20;99.90
3788;DHT22;1909;53.046;8.276;2022-11-18T10:38:45;3.20;99.90
3788;DHT22;1909;53.046;8.276;2022-11-18T10:41:14;3.10;99.90
3788;DHT22;1909;53.046;8.276;2022-11-18T10:43:47;3.20;99.90
3788;DHT22;1909;53.046;8.276;2022-11-18T10:46:16;3.30;99.90
3788;DHT22;1909;53.046;8.276;2022-11-18T10:48:48;3.30;99.90
3788;DHT22;1909;53.046;8.276;2022-11-18T10:51:34;3.10;99.90
3788;DHT22;1909;53.046;8.276;2022-11-18T10:54:08;3.00;99.90
3788;DHT22;1909;53.046;8.276;2022-11-18T10:56:44;2.90;99.90
3788;DHT22;1909;53.046;8.276;2022-11-18T10:59:19;2.90;99.90
3788;DHT22;1909;53.046;8.276;2022-11-18T11:01:56;2.80;99.90
3788;DHT22;1909;53.046;8.276;2022-11-18T11:04:24;2.70;99.90
3788;DHT22;1909;53.046;8.276;2022-11-18T11:06:52;2.70;99.90
3788;DHT22;1909;53.046;8.276;2022-11-18T11:09:26;2.80;99.90
3788;DHT22;1909;53.046;8.276;2022-11-18T11:11:59;2.70;99.90
3788;DHT22;1909;53.046;8.276;2022-11-18T11:14:31;2.80;99.90
3788;DHT22;1909;53.046;8.276;2022-11-18T11:17:08;2.80;99.90
3788;DHT22;1909;53.046;8.276;2022-11-18T11:19:46;3.00;99.90
3788;DHT22;1909;53.046;8.276;2022-11-18T11:22:15;3.10;99.90
3788;DHT22;1909;53.046;8.276;2022-11-18T11:24:43;3.00;99.90
3788;DHT22;1909;53.046;8.276;2022-11-18T11:30:18;3.00;99.90
3788;DHT22;1909;53.046;8.276;2022-11-18T11:35:59;3.00;99.90
3788;DHT22;1909;53.046;8.276;2022-11-18T11:38:37;3.00;99.90
3788;DHT22;1909;53.046;8.276;2022-11-18T11:41:13;3.00;99.90
3788;DHT22;1909;53.046;8.276;2022-11-18T11:43:54;3.10;99.90
3788;DHT22;1909;53.046;8.276;2022-11-18T11:46:33;3.00;99.90
3788;DHT22;1909;53.046;8.276;2022-11-18T11:49:14;3.00;99.90
3788;DHT22;1909;53.046;8.276;2022-11-18T11:51:47;3.00;99.90
3788;DHT22;1909;53.046;8.276;2022-11-18T11:54:22;3.10;99.90
3788;DHT22;1909;53.046;8.276;2022-11-18T11:56:54;3.00;99.90
3788;DHT22;1909;53.046;8.276;2022-11-18T11:59:28;3.00;99.90
3788;DHT22;1909;53.046;8.276;2022-11-18T12:02:14;3.10;99.90
3788;DHT22;1909;53.046;8.276;2022-11-18T12:04:46;3.00;99.90
3788;DHT22;1909;53.046;8.276;2022-11-18T12:07:18;3.00;99.90
3788;DHT22;1909;53.046;8.276;2022-11-18T12:09:56;3.00;99.90
3788;DHT22;1909;53.046;8.276;2022-11-18T12:12:32;2.90;99.90
3788;DHT22;1909;53.046;8.276;2022-11-18T12:15:10;2.90;99.90
3788;DHT22;1909;53.046;8.276;2022-11-18T12:17:47;2.90;99.90
3788;DHT22;1909;53.046;8.276;2022-11-18T12:20:38;3.00;99.90
3788;DHT22;1909;53.046;8.276;2022-11-18T12:23:17;2.90;99.90
3788;DHT22;1909;53.046;8.276;2022-11-18T12:25:55;2.90;99.90
3788;DHT22;1909;53.046;8.276;2022-11-18T12:28:27;2.90;99.90
3788;DHT22;1909;53.046;8.276;2022-11-18T12:31:32;2.90;99.90
3788;DHT22;1909;53.046;8.276;2022-11-18T12:34:15;2.90;99.90
3788;DHT22;1909;53.046;8.276;2022-11-18T12:36:43;2.80;99.90
3788;DHT22;1909;53.046;8.276;2022-11-18T12:42:35;2.80;99.90
3788;DHT22;1909;53.046;8.276;2022-11-18T12:45:48;2.90;99.90
3788;DHT22;1909;53.046;8.276;2022-11-18T12:48:34;2.90;99.90
3788;DHT22;1909;53.046;8.276;2022-11-18T12:54:30;2.90;99.90
3788;DHT22;1909;53.046;8.276;2022-11-18T12:57:00;2.90;99.90
3788;DHT22;1909;53.046;8.276;2022-11-18T12:59:33;2.80;99.90
3788;DHT22;1909;53.046;8.276;2022-11-18T13:02:22;2.90;99.90
3788;DHT22;1909;53.046;8.276;2022-11-18T13:05:03;2.80;99.90
3788;DHT22;1909;53.046;8.276;2022-11-18T13:07:32;2.80;99.90
3788;DHT22;1909;53.046;8.276;2022-11-18T13:10:21;2.90;99.90
3788;DHT22;1909;53.046;8.276;2022-11-18T13:12:49;2.90;99.90
3788;DHT22;1909;53.046;8.276;2022-11-18T13:15:17;3.00;99.90
3788;DHT22;1909;53.046;8.276;2022-11-18T13:18:11;2.80;99.90
3788;DHT22;1909;53.046;8.276;2022-11-18T13:20:39;2.80;99.90
3788;DHT22;1909;53.046;8.276;2022-11-18T13:23:24;2.70;99.90
3788;DHT22;1909;53.046;8.276;2022-11-18T13:26:15;2.80;99.90
3788;DHT22;1909;53.046;8.276;2022-11-18T13:28:51;2.80;99.90
3788;DHT22;1909;53.046;8.276;2022-11-18T13:31:24;2.90;99.90
3788;DHT22;1909;53.046;8.276;2022-11-18T13:33:54;2.80;99.90
3788;DHT22;1909;53.046;8.276;2022-11-18T13:36:22;2.80;99.90
3788;DHT22;1909;53.046;8.276;2022-11-18T13:38:56;2.80;99.90
3788;DHT22;1909;53.046;8.276;2022-11-18T13:41:25;2.80;99.90
3788;DHT22;1909;53.046;8.276;2022-11-18T13:44:09;2.80;99.90
3788;DHT22;1909;53.046;8.276;2022-11-18T13:46:37;2.80;99.90
3788;DHT22;1909;53.046;8.276;2022-11-18T13:49:10;2.80;99.90
3788;DHT22;1909;53.046;8.276;2022-11-18T13:51:39;2.90;99.90
3788;DHT22;1909;53.046;8.276;2022-11-18T13:54:08;2.80;99.90
3788;DHT22;1909;53.046;8.276;2022-11-18T13:56:38;2.80;99.90
3788;DHT22;1909;53.046;8.276;2022-11-18T13:59:04;2.80;99.90
3788;DHT22;1909;53.046;8.276;2022-11-18T14:01:33;2.70;99.90
3788;DHT22;1909;53.046;8.276;2022-11-18T14:04:01;2.80;99.90
3788;DHT22;1909;53.046;8.276;2022-11-18T14:06:32;2.70;99.90
3788;DHT22;1909;53.046;8.276;2022-11-18T14:09:14;2.80;99.90
3788;DHT22;1909;53.046;8.276;2022-11-18T14:11:44;2.70;99.90
3788;DHT22;1909;53.046;8.276;2022-11-18T14:14:26;2.60;99.90
3788;DHT22;1909;53.046;8.276;2022-11-18T14:17:02;2.50;99.90
3788;DHT22;1909;53.046;8.276;2022-11-18T14:19:31;2.50;99.90
3788;DHT22;1909;53.046;8.276;2022-11-18T14:22:04;2.50;99.90
3788;DHT22;1909;53.046;8.276;2022-11-18T14:24:31;2.50;99.90
3788;DHT22;1909;53.046;8.276;2022-11-18T14:26:58;2.50;99.90
3788;DHT22;1909;53.046;8.276;2022-11-18T14:29:25;2.60;99.90
3788;DHT22;1909;53.046;8.276;2022-11-18T14:32:12;2.50;99.90
3788;DHT22;1909;53.046;8.276;2022-11-18T14:34:39;2.50;99.90
3788;DHT22;1909;53.046;8.276;2022-11-18T14:37:11;2.40;99.90
3788;DHT22;1909;53.046;8.276;2022-11-18T14:39:39;2.60;99.90
3788;DHT22;1909;53.046;8.276;2022-11-18T14:42:10;2.70;99.90
3788;DHT22;1909;53.046;8.276;2022-11-18T14:44:38;2.70;99.90
3788;DHT22;1909;53.046;8.276;2022-11-18T14:47:10;2.70;99.90
3788;DHT22;1909;53.046;8.276;2022-11-18T14:49:40;2.70;99.90
3788;DHT22;1909;53.046;8.276;2022-11-18T14:52:10;2.70;99.90
3788;DHT22;1909;53.046;8.276;2022-11-18T14:54:38;2.70;99.90
3788;DHT22;1909;53.046;8.276;2022-11-18T14:57:05;2.60;99.90
3788;DHT22;1909;53.046;8.276;2022-11-18T14:59:32;2.70;99.90
3788;DHT22;1909;53.046;8.276;2022-11-18T15:01:58;2.70;99.90
3788;DHT22;1909;53.046;8.276;2022-11-18T15:04:25;2.60;99.90
3788;DHT22;1909;53.046;8.276;2022-11-18T15:06:52;2.60;99.90
3788;DHT22;1909;53.046;8.276;2022-11-18T15:09:20;2.60;99.90
3788;DHT22;1909;53.046;8.276;2022-11-18T15:11:47;2.60;99.90
3788;DHT22;1909;53.046;8.276;2022-11-18T15:14:14;2.60;99.90
3788;DHT22;1909;53.046;8.276;2022-11-18T15:16:40;2.60;99.90
3788;DHT22;1909;53.046;8.276;2022-11-18T15:19:12;2.60;99.90
3788;DHT22;1909;53.046;8.276;2022-11-18T15:21:39;2.50;99.90
3788;DHT22;1909;53.046;8.276;2022-11-18T15:24:06;2.60;99.90
3788;DHT22;1909;53.046;8.276;2022-11-18T15:26:37;2.50;99.90
3788;DHT22;1909;53.046;8.276;2022-11-18T15:29:04;2.50;99.90
3788;DHT22;1909;53.046;8.276;2022-11-18T15:31:31;2.50;99.90
3788;DHT22;1909;53.046;8.276;2022-11-18T15:33:58;2.50;99.90
3788;DHT22;1909;53.046;8.276;2022-11-18T15:36:26;2.50;99.90
3788;DHT22;1909;53.046;8.276;2022-11-18T15:38:54;2.40;99.90
3788;DHT22;1909;53.046;8.276;2022-11-18T15:41:22;2.40;99.90
3788;DHT22;1909;53.046;8.276;2022-11-18T15:43:52;2.30;99.90
3788;DHT22;1909;53.046;8.276;2022-11-18T15:46:20;2.40;99.90
3788;DHT22;1909;53.046;8.276;2022-11-18T15:48:50;2.40;99.90
3788;DHT22;1909;53.046;8.276;2022-11-18T15:51:17;2.30;99.90
3788;DHT22;1909;53.046;8.276;2022-11-18T15:53:44;2.40;99.90
3788;DHT22;1909;53.046;8.276;2022-11-18T15:56:19;2.30;99.90
3788;DHT22;1909;53.046;8.276;2022-11-18T15:58:53;2.30;99.90
3788;DHT22;1909;53.046;8.276;2022-11-18T16:01:20;2.30;99.90
3788;DHT22;1909;53.046;8.276;2022-11-18T16:03:47;2.40;99.90
3788;DHT22;1909;53.046;8.276;2022-11-18T16:06:14;2.40;99.90
3788;DHT22;1909;53.046;8.276;2022-11-18T16:08:41;2.30;99.90
3788;DHT22;1909;53.046;8.276;2022-11-18T16:11:10;2.30;99.90
3788;DHT22;1909;53.046;8.276;2022-11-18T16:13:59;2.40;99.90
3788;DHT22;1909;53.046;8.276;2022-11-18T16:16:26;2.40;99.90
3788;DHT22;1909;53.046;8.276;2022-11-18T16:18:54;2.30;99.90
3788;DHT22;1909;53.046;8.276;2022-11-18T16:21:22;2.30;99.90
3788;DHT22;1909;53.046;8.276;2022-11-18T16:23:52;2.20;99.90
3788;DHT22;1909;53.046;8.276;2022-11-18T16:26:19;2.30;99.90
3788;DHT22;1909;53.046;8.276;2022-11-18T16:28:46;2.20;99.90
3788;DHT22;1909;53.046;8.276;2022-11-18T16:31:14;2.30;99.90
3788;DHT22;1909;53.046;8.276;2022-11-18T16:33:58;2.20;99.90
3788;DHT22;1909;53.046;8.276;2022-11-18T16:36:25;2.20;99.90
3788;DHT22;1909;53.046;8.276;2022-11-18T16:38:52;2.30;99.90
3788;DHT22;1909;53.046;8.276;2022-11-18T16:41:19;2.20;99.90
3788;DHT22;1909;53.046;8.276;2022-11-18T16:43:59;2.30;99.90
3788;DHT22;1909;53.046;8.276;2022-11-18T16:46:30;2.30;99.90
3788;DHT22;1909;53.046;8.276;2022-11-18T16:48:57;2.20;99.90
3788;DHT22;1909;53.046;8.276;2022-11-18T16:51:25;2.20;99.90
3788;DHT22;1909;53.046;8.276;2022-11-18T16:53:54;2.10;99.90
3788;DHT22;1909;53.046;8.276;2022-11-18T16:56:22;2.10;99.90